Time;durP1;ratioP1;P1;durP2;ratioP2;P2;SDS_P1;SDS_P2;PMS_P1;PMS_P2;Temp;Humidity;BMP_temperature;BMP_pressure;BME280_temperature;BME280_humidity;BME280_pressure;Samples;Min_cycle;Max_cycle;Signal;HPM_P1;HPM_P2
2023/02/13 00:01:34;;;;;;;20.60;14.52;;;8.90;99.90;;;;;;5059532;28;20128;-43
2023/02/13 00:03:59;;;;;;;21.27;13.85;;;8.90;99.90;;;;;;5059570;28;20049;-43
2023/02/13 00:06:25;;;;;;;21.48;13.85;;;8.90;99.90;;;;;;5060122;28;20040;-43
2023/02/13 00:08:51;;;;;;;19.73;13.60;;;8.90;99.90;;;;;;5059114;28;20032;-44
2023/02/13 00:11:17;;;;;;;20.85;14.13;;;8.90;99.90;;;;;;5059898;28;20444;-44
2023/02/13 00:13:43;;;;;;;21.80;13.90;;;8.90;99.90;;;;;;5059555;28;20020;-43
2023/02/13 00:16:09;;;;;;;23.35;15.50;;;8.90;99.90;;;;;;5058855;28;20048;-43
2023/02/13 00:18:37;;;;;;;23.25;15.18;;;8.90;99.90;;;;;;5059707;28;20024;-43
2023/02/13 00:21:04;;;;;;;22.17;14.85;;;8.90;99.90;;;;;;5059776;28;20035;-43
2023/02/13 00:23:31;;;;;;;24.73;15.38;;;8.90;99.90;;;;;;5059131;28;20813;-43
2023/02/13 00:25:58;;;;;;;20.92;14.20;;;8.80;99.90;;;;;;5059069;28;20086;-44
2023/02/13 00:28:23;;;;;;;23.80;14.88;;;8.80;99.90;;;;;;5059475;28;20191;-45
2023/02/13 00:30:49;;;;;;;22.98;14.60;;;8.80;99.90;;;;;;5059000;28;20028;-43
2023/02/13 00:33:14;;;;;;;21.73;15.18;;;8.80;99.90;;;;;;5059746;28;20033;-44
2023/02/13 00:35:40;;;;;;;21.52;14.02;;;8.80;99.90;;;;;;5059581;28;20440;-43
2023/02/13 00:38:06;;;;;;;21.13;13.82;;;8.80;99.90;;;;;;5059068;28;20146;-44
2023/02/13 00:40:31;;;;;;;23.95;15.50;;;8.80;99.90;;;;;;5059342;28;20086;-44
2023/02/13 00:42:57;;;;;;;24.02;15.80;;;8.80;99.90;;;;;;5059355;28;20047;-43
2023/02/13 00:45:25;;;;;;;21.02;14.07;;;8.80;99.90;;;;;;5058709;28;20036;-44
2023/02/13 00:47:51;;;;;;;19.08;13.18;;;8.80;99.90;;;;;;5059591;28;20379;-43
2023/02/13 00:50:16;;;;;;;19.65;13.40;;;8.80;99.90;;;;;;5060010;28;20032;-43
2023/02/13 00:52:42;;;;;;;19.10;13.23;;;8.80;99.90;;;;;;5059149;28;20817;-43
2023/02/13 00:55:08;;;;;;;20.85;13.77;;;8.80;99.90;;;;;;5060323;28;20040;-43
2023/02/13 00:57:34;;;;;;;21.80;13.48;;;8.80;99.90;;;;;;5059154;28;20476;-43
2023/02/13 00:59:59;;;;;;;21.83;14.52;;;8.80;99.90;;;;;;5059764;28;20031;-44
2023/02/13 01:02:25;;;;;;;22.02;14.55;;;8.80;99.90;;;;;;5059508;28;20075;-44
2023/02/13 01:04:53;;;;;;;22.33;15.32;;;8.80;99.90;;;;;;5058401;28;20032;-44
2023/02/13 01:07:19;;;;;;;24.27;15.85;;;8.80;99.90;;;;;;5059732;28;20491;-44
2023/02/13 01:09:44;;;;;;;23.25;15.27;;;8.80;99.90;;;;;;5059252;28;20032;-43
2023/02/13 01:12:10;;;;;;;24.58;15.68;;;8.80;99.90;;;;;;5058896;28;20112;-43
2023/02/13 01:14:36;;;;;;;22.58;14.95;;;8.80;99.90;;;;;;5059498;28;20038;-43
2023/02/13 01:17:01;;;;;;;22.15;14.15;;;8.70;99.90;;;;;;5059279;28;20081;-44
2023/02/13 01:19:27;;;;;;;23.85;14.80;;;8.80;99.90;;;;;;5058386;28;20035;-43
2023/02/13 01:21:52;;;;;;;22.75;14.93;;;8.80;99.90;;;;;;5058640;28;20039;-43
2023/02/13 01:24:18;;;;;;;22.02;13.93;;;8.80;99.90;;;;;;5059433;28;20056;-44
2023/02/13 01:26:46;;;;;;;21.38;14.32;;;8.80;99.90;;;;;;5058729;28;20185;-44
2023/02/13 01:29:12;;;;;;;21.92;14.18;;;8.80;99.90;;;;;;5059239;28;20025;-43
2023/02/13 01:31:38;;;;;;;23.20;14.80;;;8.80;99.90;;;;;;5059773;28;20368;-43
2023/02/13 01:34:03;;;;;;;21.50;14.40;;;8.80;99.90;;;;;;5058466;28;20471;-44
2023/02/13 01:36:29;;;;;;;23.45;15.25;;;8.80;99.90;;;;;;5058936;28;20735;-43
2023/02/13 01:38:56;;;;;;;23.23;13.88;;;8.80;99.90;;;;;;5058364;28;20025;-44
2023/02/13 01:41:23;;;;;;;22.55;14.23;;;8.80;99.90;;;;;;5058251;28;20611;-44
2023/02/13 01:43:53;;;;;;;22.02;14.52;;;8.80;99.90;;;;;;5057977;28;20032;-44
2023/02/13 01:46:30;;;;;;;22.27;15.20;;;8.80;99.90;;;;;;5058693;28;20040;-44
2023/02/13 01:49:10;;;;;;;24.20;15.18;;;8.90;99.90;;;;;;5048128;28;20717;-44
2023/02/13 01:51:36;;;;;;;21.00;13.93;;;8.90;99.90;;;;;;5061187;28;20039;-44
2023/02/13 01:54:06;;;;;;;19.98;14.15;;;8.80;99.90;;;;;;5058290;28;20033;-43
2023/02/13 01:56:51;;;;;;;20.50;13.68;;;8.80;99.90;;;;;;5062709;28;20028;-43
2023/02/13 01:59:23;;;;;;;22.05;14.30;;;8.90;99.90;;;;;;5052882;28;20103;-42
2023/02/13 02:01:49;;;;;;;21.35;13.75;;;8.80;99.90;;;;;;5061511;28;20023;-43
2023/02/13 02:04:21;;;;;;;20.92;14.25;;;8.80;99.90;;;;;;5062893;28;20099;-42
2023/02/13 02:06:57;;;;;;;22.40;14.90;;;8.90;99.90;;;;;;5063052;28;20274;-43
2023/02/13 02:09:27;;;;;;;27.48;16.33;;;8.80;99.90;;;;;;5061395;28;20036;-43
2023/02/13 02:12:00;;;;;;;25.88;16.23;;;8.80;99.90;;;;;;5062076;28;20039;-44
2023/02/13 02:14:27;;;;;;;25.80;16.25;;;8.80;99.90;;;;;;5062450;28;20035;-44
2023/02/13 02:16:52;;;;;;;24.67;16.55;;;8.80;99.90;;;;;;5061698;28;20037;-43
2023/02/13 02:19:27;;;;;;;23.55;15.98;;;8.80;99.90;;;;;;5062453;28;20059;-43
2023/02/13 02:22:12;;;;;;;24.02;15.52;;;8.80;99.90;;;;;;5061789;28;20036;-43
2023/02/13 02:24:48;;;;;;;29.30;17.73;;;8.80;99.90;;;;;;5058989;28;20060;-43
2023/02/13 02:27:53;;;;;;;28.00;18.38;;;8.80;99.90;;;;;;5062472;28;20028;-42
2023/02/13 02:30:40;;;;;;;27.30;17.95;;;8.80;99.90;;;;;;5049638;28;20563;-43
2023/02/13 02:33:32;;;;;;;25.80;17.65;;;8.80;99.90;;;;;;5061661;28;20036;-43
2023/02/13 02:36:11;;;;;;;28.73;18.10;;;8.70;99.90;;;;;;5050119;28;20048;-43
2023/02/13 02:38:46;;;;;;;26.80;17.02;;;8.70;99.90;;;;;;5061523;28;20110;-43
2023/02/13 02:41:41;;;;;;;24.38;16.35;;;8.70;99.90;;;;;;5061343;28;20071;-43
2023/02/13 02:44:07;;;;;;;25.58;16.63;;;8.80;99.90;;;;;;5060784;28;20523;-44
2023/02/13 02:49:57;;;;;;;30.05;18.05;;;8.70;99.90;;;;;;5061929;28;20706;-44
2023/02/13 02:52:25;;;;;;;28.15;17.15;;;8.70;99.90;;;;;;5041900;28;20519;-43
2023/02/13 02:55:05;;;;;;;;;;;8.70;99.90;;;;;;5056891;28;20476;-44
2023/02/13 03:06:26;;;;;;;33.22;21.00;;;8.70;99.90;;;;;;5052496;28;20145;-43
2023/02/13 03:14:27;;;;;;;29.55;19.27;;;8.70;99.90;;;;;;5061469;28;20146;-43
2023/02/13 03:22:53;;;;;;;32.67;20.52;;;8.70;99.90;;;;;;5060620;28;20031;-43
2023/02/13 03:25:57;;;;;;;30.63;19.98;;;8.70;99.90;;;;;;5060307;28;20486;-43
2023/02/13 03:31:34;;;;;;;29.65;19.05;;;8.70;99.90;;;;;;4978599;28;20197;-44
2023/02/13 03:34:11;;;;;;;30.50;19.20;;;8.70;99.90;;;;;;5041070;28;20056;-45
2023/02/13 03:40:01;;;;;;;27.52;18.05;;;8.70;99.90;;;;;;5060356;28;20050;-43
2023/02/13 03:42:43;;;;;;;28.92;18.23;;;8.70;99.90;;;;;;5059584;28;20039;-43
2023/02/13 03:48:08;;;;;;;29.58;20.10;;;8.70;99.90;;;;;;5051732;28;20129;-43
2023/02/13 03:50:39;;;;;;;31.63;19.42;;;8.70;99.90;;;;;;5060568;28;20020;-44
2023/02/13 03:53:09;;;;;;;31.17;20.00;;;8.70;99.90;;;;;;5060868;28;20024;-44
2023/02/13 04:01:20;;;;;;;27.77;18.42;;;8.70;99.90;;;;;;5059622;28;20035;-44
2023/02/13 04:03:49;;;;;;;32.08;19.80;;;8.70;99.90;;;;;;5060410;28;20056;-44
2023/02/13 04:06:30;;;;;;;31.90;19.33;;;8.70;99.90;;;;;;5059875;28;20562;-44
2023/02/13 04:08:56;;;;;;;31.27;19.67;;;8.70;99.90;;;;;;5058635;28;20032;-44
2023/02/13 04:11:51;;;;;;;28.50;18.65;;;8.70;99.90;;;;;;5060515;28;20771;-44
2023/02/13 04:14:29;;;;;;;28.40;19.10;;;8.70;99.90;;;;;;5059025;28;20032;-43
2023/02/13 04:17:05;;;;;;;27.50;17.52;;;8.70;99.90;;;;;;5059718;28;20078;-44
2023/02/13 04:19:32;;;;;;;30.02;19.83;;;8.70;99.90;;;;;;5060212;28;20075;-44
2023/02/13 04:22:00;;;;;;;28.02;18.60;;;8.70;99.90;;;;;;5059301;28;20032;-44
2023/02/13 04:24:26;;;;;;;28.38;18.63;;;8.70;99.90;;;;;;5060012;28;20028;-44
2023/02/13 04:26:53;;;;;;;29.52;19.55;;;8.70;99.90;;;;;;5059231;28;20097;-44
2023/02/13 04:29:21;;;;;;;28.45;19.27;;;8.80;99.90;;;;;;5059538;28;20008;-43
2023/02/13 04:31:50;;;;;;;29.33;19.58;;;8.70;99.90;;;;;;5059557;28;20066;-47
2023/02/13 04:34:15;;;;;;;29.38;18.77;;;8.70;99.90;;;;;;5060149;28;20025;-44
2023/02/13 04:36:44;;;;;;;29.08;19.10;;;8.70;99.90;;;;;;5059301;28;20037;-44
2023/02/13 04:39:10;;;;;;;28.92;18.75;;;8.70;99.90;;;;;;5059484;28;20012;-44
2023/02/13 04:41:36;;;;;;;30.75;20.58;;;8.70;99.90;;;;;;5059360;28;20115;-42
2023/02/13 04:44:01;;;;;;;32.75;20.63;;;8.70;99.90;;;;;;5058304;28;20035;-43
2023/02/13 04:46:27;;;;;;;32.25;19.38;;;8.70;99.90;;;;;;5059492;28;20052;-43
2023/02/13 04:48:52;;;;;;;33.22;21.13;;;8.70;99.90;;;;;;5058247;28;20127;-43
2023/02/13 04:51:18;;;;;;;35.20;22.73;;;8.70;99.90;;;;;;5058043;28;20059;-43
2023/02/13 04:53:43;;;;;;;31.58;21.23;;;8.70;99.90;;;;;;5058570;28;20116;-43
2023/02/13 04:56:09;;;;;;;33.75;21.98;;;8.60;99.90;;;;;;5058841;28;20040;-43
2023/02/13 04:58:35;;;;;;;32.55;20.92;;;8.70;99.90;;;;;;5057918;28;20060;-43
2023/02/13 05:01:10;;;;;;;30.92;20.88;;;8.70;99.90;;;;;;5059729;28;20452;-43
2023/02/13 05:03:39;;;;;;;28.45;19.27;;;8.70;99.90;;;;;;5058257;28;20056;-43
2023/02/13 05:06:04;;;;;;;30.75;19.48;;;8.70;99.90;;;;;;5058678;28;20024;-43
2023/02/13 05:08:30;;;;;;;29.33;18.42;;;8.70;99.90;;;;;;5058870;28;20063;-43
2023/02/13 05:10:55;;;;;;;30.45;19.55;;;8.70;99.90;;;;;;5057472;28;20029;-43
2023/02/13 05:13:21;;;;;;;29.65;19.63;;;8.70;99.90;;;;;;5058610;28;20024;-43
2023/02/13 05:15:51;;;;;;;31.98;20.38;;;8.70;99.90;;;;;;5058592;28;20079;-43
2023/02/13 05:18:17;;;;;;;32.35;21.58;;;8.70;99.90;;;;;;5059097;28;20052;-43
2023/02/13 05:20:43;;;;;;;35.05;22.08;;;8.70;99.90;;;;;;5058154;28;20044;-43
2023/02/13 05:23:22;;;;;;;34.70;22.00;;;8.60;99.90;;;;;;5058345;28;20025;-43
2023/02/13 05:25:48;;;;;;;34.58;22.05;;;8.60;99.90;;;;;;5055041;28;20029;-43
2023/02/13 05:30:58;;;;;;;33.95;21.90;;;8.50;99.90;;;;;;5057146;28;20042;-43
2023/02/13 05:33:25;;;;;;;32.70;21.27;;;8.50;99.90;;;;;;5057843;28;20029;-43
2023/02/13 05:35:50;;;;;;;34.70;22.25;;;8.50;99.90;;;;;;5058290;28;20037;-44
2023/02/13 05:38:16;;;;;;;36.63;24.02;;;8.50;99.90;;;;;;5059264;28;20024;-44
2023/02/13 05:40:44;;;;;;;33.25;22.00;;;8.50;99.90;;;;;;5057387;28;20131;-44
2023/02/13 05:43:12;;;;;;;35.40;23.27;;;8.50;99.90;;;;;;5058458;28;20024;-43
2023/02/13 05:45:38;;;;;;;35.05;23.17;;;8.50;99.90;;;;;;5058169;28;20487;-43
2023/02/13 05:48:04;;;;;;;33.40;21.80;;;8.50;99.90;;;;;;5057632;28;20024;-43
2023/02/13 05:50:29;;;;;;;30.98;20.70;;;8.50;99.90;;;;;;5057885;28;20045;-43
2023/02/13 05:52:55;;;;;;;34.13;22.58;;;8.50;99.90;;;;;;5057517;28;20541;-43
2023/02/13 05:55:20;;;;;;;35.42;22.60;;;8.50;99.90;;;;;;5058433;28;20553;-44
2023/02/13 05:57:46;;;;;;;31.52;21.42;;;8.50;99.90;;;;;;5058252;28;20042;-44
2023/02/13 06:00:12;;;;;;;32.63;21.25;;;8.50;99.90;;;;;;5058125;28;20090;-43
2023/02/13 06:02:37;;;;;;;30.05;20.38;;;8.60;99.90;;;;;;5058674;28;20056;-44
2023/02/13 06:05:03;;;;;;;28.38;20.30;;;8.60;99.90;;;;;;5057850;28;20055;-44
2023/02/13 06:07:29;;;;;;;33.20;20.00;;;8.60;99.90;;;;;;5057857;28;20029;-44
2023/02/13 06:09:57;;;;;;;31.20;20.58;;;8.60;99.90;;;;;;5057782;28;20036;-44
2023/02/13 06:12:22;;;;;;;30.00;19.85;;;8.60;99.90;;;;;;5058776;28;20084;-44
2023/02/13 06:14:48;;;;;;;28.85;19.02;;;8.60;99.90;;;;;;5056124;28;20037;-44
2023/02/13 06:17:13;;;;;;;28.58;19.15;;;8.60;99.90;;;;;;5058009;28;20098;-44
2023/02/13 06:19:39;;;;;;;26.63;18.10;;;8.60;99.90;;;;;;5057935;28;20036;-44
2023/02/13 06:22:04;;;;;;;26.85;17.80;;;8.70;99.90;;;;;;5055503;28;20039;-44
2023/02/13 06:24:30;;;;;;;30.27;19.45;;;8.70;99.90;;;;;;5050388;28;20054;-44
2023/02/13 06:26:56;;;;;;;30.83;19.70;;;8.70;99.90;;;;;;5056531;28;20054;-43
2023/02/13 06:29:22;;;;;;;28.73;19.70;;;8.60;99.90;;;;;;5057724;28;20135;-44
2023/02/13 06:31:47;;;;;;;31.35;20.23;;;8.70;99.90;;;;;;5056920;28;20077;-44
2023/02/13 06:34:13;;;;;;;30.25;20.42;;;8.60;99.90;;;;;;5059534;28;20578;-43
2023/02/13 06:36:40;;;;;;;30.42;19.65;;;8.70;99.90;;;;;;5057477;28;20047;-43
2023/02/13 06:39:06;;;;;;;29.88;20.35;;;8.70;99.90;;;;;;5061804;28;20132;-43
2023/02/13 06:41:31;;;;;;;28.63;19.25;;;8.60;99.90;;;;;;5061080;28;20814;-42
2023/02/13 06:43:57;;;;;;;29.05;19.15;;;8.60;99.90;;;;;;5060534;28;20106;-43
2023/02/13 06:46:23;;;;;;;31.23;20.33;;;8.60;99.90;;;;;;5061136;28;20036;-43
2023/02/13 06:48:48;;;;;;;31.30;19.35;;;8.60;99.90;;;;;;5060508;28;20892;-43
2023/02/13 06:51:14;;;;;;;27.30;18.40;;;8.70;99.90;;;;;;5060380;28;20032;-43
2023/02/13 06:53:39;;;;;;;27.88;19.27;;;8.70;99.90;;;;;;5061408;28;20039;-43
2023/02/13 06:56:05;;;;;;;27.08;18.40;;;8.60;99.90;;;;;;5060320;28;20086;-44
2023/02/13 06:58:32;;;;;;;28.52;18.60;;;8.60;99.90;;;;;;5060184;28;20024;-43
2023/02/13 07:01:01;;;;;;;26.08;18.77;;;8.70;99.90;;;;;;5060277;28;20818;-43
2023/02/13 07:03:26;;;;;;;28.38;19.40;;;8.70;99.90;;;;;;5059477;28;20051;-43
2023/02/13 07:05:52;;;;;;;28.27;18.80;;;8.70;99.90;;;;;;5059724;28;20032;-43
2023/02/13 07:08:18;;;;;;;28.02;20.08;;;8.70;99.90;;;;;;5060414;28;20052;-43
2023/02/13 07:10:43;;;;;;;31.67;20.67;;;8.60;99.90;;;;;;5059507;28;20025;-43
2023/02/13 07:13:10;;;;;;;29.83;20.27;;;8.70;99.90;;;;;;5060777;28;20028;-43
2023/02/13 07:15:36;;;;;;;27.73;20.52;;;8.70;99.90;;;;;;5061113;28;20017;-44
2023/02/13 07:18:02;;;;;;;34.13;22.77;;;8.70;99.90;;;;;;5059913;28;20460;-43
2023/02/13 07:20:28;;;;;;;31.92;21.92;;;8.70;99.90;;;;;;5061142;28;20039;-43
2023/02/13 07:22:58;;;;;;;29.75;21.30;;;8.70;99.90;;;;;;5059941;28;20109;-43
2023/02/13 07:25:24;;;;;;;32.47;22.00;;;8.70;99.90;;;;;;5060475;28;20064;-43
2023/02/13 07:27:49;;;;;;;31.98;21.50;;;8.70;99.90;;;;;;5059879;28;20111;-43
2023/02/13 07:30:15;;;;;;;34.20;22.55;;;8.70;99.90;;;;;;5061790;28;20029;-43
2023/02/13 07:32:41;;;;;;;32.28;22.10;;;8.70;99.90;;;;;;5060691;28;20566;-43
2023/02/13 07:35:06;;;;;;;28.33;21.13;;;8.70;99.90;;;;;;5060652;28;20372;-43
2023/02/13 07:37:32;;;;;;;30.92;20.58;;;8.70;99.90;;;;;;5059426;28;20123;-43
2023/02/13 07:39:57;;;;;;;32.53;20.88;;;8.80;99.90;;;;;;5058648;28;20024;-44
2023/02/13 07:42:23;;;;;;;29.23;20.52;;;8.80;99.90;;;;;;5061065;28;20237;-44
2023/02/13 07:44:49;;;;;;;30.15;20.98;;;8.80;99.90;;;;;;5059013;28;20799;-42
2023/02/13 07:47:14;;;;;;;28.00;19.25;;;8.80;99.90;;;;;;5060540;28;20032;-43
2023/02/13 07:49:40;;;;;;;30.67;21.30;;;8.80;99.90;;;;;;5059448;28;20617;-43
2023/02/13 07:52:09;;;;;;;29.35;19.65;;;8.90;99.90;;;;;;5060125;28;20472;-43
2023/02/13 07:54:36;;;;;;;28.60;20.45;;;8.90;99.90;;;;;;5059093;28;20063;-44
2023/02/13 07:57:06;;;;;;;27.27;19.42;;;8.90;99.90;;;;;;5060261;28;20032;-43
2023/02/13 07:59:31;;;;;;;28.27;20.02;;;9.00;99.90;;;;;;5059883;28;20036;-44
2023/02/13 08:01:57;;;;;;;29.77;20.80;;;9.00;99.90;;;;;;5059640;28;20036;-44
2023/02/13 08:04:22;;;;;;;30.00;20.88;;;9.00;99.90;;;;;;5060770;28;20040;-43
2023/02/13 08:06:48;;;;;;;29.83;20.75;;;9.00;99.90;;;;;;5059871;28;20060;-44
2023/02/13 08:12:06;;;;;;;35.72;23.30;;;9.00;99.90;;;;;;5060507;28;20094;-42
2023/02/13 08:14:32;;;;;;;32.03;22.23;;;9.00;99.90;;;;;;5058777;28;20032;-43
2023/02/13 08:17:00;;;;;;;32.75;21.98;;;9.00;99.90;;;;;;5059824;28;20332;-43
2023/02/13 08:19:25;;;;;;;28.90;20.45;;;9.00;99.90;;;;;;5060164;28;20115;-43
2023/02/13 08:21:51;;;;;;;31.98;22.58;;;8.90;99.90;;;;;;5057999;28;20025;-44
2023/02/13 08:24:16;;;;;;;30.80;21.98;;;9.00;99.90;;;;;;5059666;28;20677;-42
2023/02/13 08:26:42;;;;;;;31.17;21.70;;;8.90;99.90;;;;;;5059100;28;20047;-43
2023/02/13 08:29:09;;;;;;;30.70;21.38;;;8.90;99.90;;;;;;5059471;28;20139;-42
2023/02/13 08:31:34;;;;;;;29.23;20.50;;;8.90;99.90;;;;;;5059304;28;20029;-43
2023/02/13 08:34:00;;;;;;;29.65;19.73;;;8.90;99.90;;;;;;5059977;28;20029;-43
2023/02/13 08:36:25;;;;;;;31.55;22.33;;;8.90;99.90;;;;;;5058760;28;20040;-43
2023/02/13 08:38:51;;;;;;;30.35;20.63;;;8.90;99.90;;;;;;5058113;28;20024;-43
2023/02/13 08:41:17;;;;;;;30.98;21.48;;;8.90;99.90;;;;;;5059822;28;20040;-43
2023/02/13 08:43:43;;;;;;;28.42;20.98;;;9.00;99.90;;;;;;5058728;28;20110;-43
2023/02/13 08:46:09;;;;;;;31.67;22.40;;;9.00;99.90;;;;;;5058858;28;20040;-43
2023/02/13 08:48:34;;;;;;;32.15;23.23;;;9.10;99.90;;;;;;5058305;28;20031;-43
2023/02/13 08:51:07;;;;;;;32.78;23.30;;;9.00;99.90;;;;;;5058522;28;20025;-44
2023/02/13 08:53:34;;;;;;;32.50;22.20;;;9.10;99.90;;;;;;5059308;28;20031;-44
2023/02/13 08:55:59;;;;;;;30.67;21.38;;;9.10;99.90;;;;;;5058679;28;20021;-44
2023/02/13 08:58:25;;;;;;;31.30;22.45;;;9.10;99.90;;;;;;5059460;28;20436;-44
2023/02/13 09:00:51;;;;;;;26.85;20.27;;;9.10;99.90;;;;;;5058318;28;20563;-44
2023/02/13 09:03:16;;;;;;;28.27;21.08;;;9.10;99.90;;;;;;5058010;28;20127;-44
2023/02/13 09:05:42;;;;;;;29.58;19.63;;;9.10;99.90;;;;;;5058910;28;20143;-43
2023/02/13 09:08:10;;;;;;;28.73;20.25;;;9.10;99.90;;;;;;5058587;28;20021;-44
2023/02/13 09:10:38;;;;;;;29.50;21.42;;;9.20;99.90;;;;;;5056786;28;20060;-44
2023/02/13 09:13:03;;;;;;;28.00;20.90;;;9.20;99.90;;;;;;5057696;28;20533;-43
2023/02/13 09:15:30;;;;;;;29.20;21.80;;;9.30;99.90;;;;;;5058518;28;20024;-44
2023/02/13 09:18:04;;;;;;;32.45;23.48;;;9.30;99.90;;;;;;5057125;28;20020;-44
2023/02/13 09:20:30;;;;;;;33.53;22.63;;;9.30;99.90;;;;;;5059552;28;20108;-44
2023/02/13 09:22:56;;;;;;;29.23;20.85;;;9.30;99.90;;;;;;5058407;28;20644;-44
2023/02/13 09:25:27;;;;;;;29.48;21.63;;;9.40;99.90;;;;;;5058391;28;20557;-44
2023/02/13 09:27:53;;;;;;;27.00;19.05;;;9.40;99.90;;;;;;5057746;28;20048;-43
2023/02/13 09:30:24;;;;;;;27.98;19.33;;;9.40;99.90;;;;;;5058752;28;20046;-44
2023/02/13 09:32:54;;;;;;;26.40;18.90;;;9.50;99.90;;;;;;5057309;28;20797;-43
2023/02/13 09:35:20;;;;;;;26.67;19.50;;;9.50;99.90;;;;;;5058255;28;20028;-43
2023/02/13 09:37:46;;;;;;;30.15;21.15;;;9.60;99.90;;;;;;5057244;28;20678;-43
2023/02/13 09:40:28;;;;;;;28.40;21.05;;;9.60;99.90;;;;;;5057541;28;20082;-43
2023/02/13 09:43:09;;;;;;;28.70;20.80;;;9.60;99.90;;;;;;5057699;28;20099;-43
2023/02/13 09:45:36;;;;;;;29.88;20.80;;;9.70;99.90;;;;;;5057431;28;20154;-43
2023/02/13 09:48:04;;;;;;;26.52;18.63;;;9.70;99.90;;;;;;5058057;28;20063;-43
2023/02/13 09:50:33;;;;;;;25.05;17.55;;;9.70;99.90;;;;;;5058129;28;20100;-43
2023/02/13 09:53:00;;;;;;;21.50;16.60;;;9.70;99.90;;;;;;5057641;28;20020;-43
2023/02/13 09:55:51;;;;;;;21.27;15.00;;;9.80;99.90;;;;;;5058647;28;20024;-43
2023/02/13 09:58:35;;;;;;;18.95;13.52;;;9.90;99.90;;;;;;5058186;28;20075;-43
2023/02/13 10:01:04;;;;;;;21.08;14.88;;;10.00;99.90;;;;;;5057764;28;20038;-43
2023/02/13 10:03:44;;;;;;;19.33;14.65;;;10.00;99.90;;;;;;5058116;28;20055;-43
2023/02/13 10:06:17;;;;;;;19.83;14.55;;;10.10;99.90;;;;;;5056993;28;20440;-43
2023/02/13 10:08:42;;;;;;;24.85;17.50;;;10.10;99.90;;;;;;5057202;28;20516;-44
2023/02/13 10:11:18;;;;;;;23.60;17.23;;;10.10;99.90;;;;;;5057718;28;20109;-48
2023/02/13 10:13:49;;;;;;;23.00;16.90;;;10.20;99.90;;;;;;5061433;28;20017;-44
2023/02/13 10:16:27;;;;;;;21.33;15.18;;;10.20;99.90;;;;;;5061660;28;20483;-43
2023/02/13 10:19:12;;;;;;;20.00;15.00;;;10.20;99.90;;;;;;5061562;28;20423;-43
2023/02/13 10:22:00;;;;;;;23.33;17.02;;;10.30;99.90;;;;;;5061909;28;20033;-44
2023/02/13 10:24:51;;;;;;;25.17;18.30;;;10.30;99.90;;;;;;5061938;28;20576;-44
2023/02/13 10:27:27;;;;;;;23.48;17.27;;;10.40;99.90;;;;;;5061028;28;20121;-44
2023/02/13 10:30:20;;;;;;;23.02;16.42;;;10.50;99.90;;;;;;5062041;28;20127;-43
2023/02/13 10:33:20;;;;;;;23.05;17.08;;;10.60;99.90;;;;;;5041911;28;20044;-43
2023/02/13 10:36:03;;;;;;;20.95;15.98;;;10.70;99.90;;;;;;5060696;28;20024;-43
2023/02/13 10:38:30;;;;;;;;;;;10.80;99.90;;;;;;5062878;28;20082;-43
2023/02/13 10:41:04;;;;;;;21.05;15.73;;;10.90;99.90;;;;;;5061163;28;19912;-44
2023/02/13 10:43:58;;;;;;;20.70;15.50;;;10.90;99.90;;;;;;5062226;28;20028;-43
2023/02/13 10:46:26;;;;;;;21.33;15.25;;;11.00;99.90;;;;;;5061669;28;20044;-43
2023/02/13 10:49:13;;;;;;;19.80;14.95;;;11.00;99.90;;;;;;5060485;28;20131;-43
2023/02/13 10:52:01;;;;;;;20.05;15.23;;;11.00;99.90;;;;;;5059868;28;20028;-44
2023/02/13 10:54:53;;;;;;;18.95;13.57;;;11.00;99.90;;;;;;5062286;28;20020;-44
2023/02/13 10:57:29;;;;;;;21.52;15.98;;;11.10;99.90;;;;;;5051246;28;20525;-43
2023/02/13 11:00:19;;;;;;;21.88;16.20;;;11.00;99.90;;;;;;5061098;28;20017;-43
2023/02/13 11:02:45;;;;;;;22.17;16.58;;;11.00;99.90;;;;;;5060810;28;20060;-43
2023/02/13 11:05:21;;;;;;;18.10;14.23;;;11.00;99.90;;;;;;5060797;28;20016;-44
2023/02/13 11:07:47;;;;;;;19.58;14.55;;;11.00;99.90;;;;;;5061420;28;20032;-44
2023/02/13 11:10:22;;;;;;;19.33;14.13;;;11.00;99.90;;;;;;5061924;28;20020;-43
2023/02/13 11:12:48;;;;;;;19.25;15.25;;;11.10;99.90;;;;;;5061131;28;20141;-44
2023/02/13 11:15:25;;;;;;;20.55;16.15;;;11.10;99.90;;;;;;5061453;28;20024;-44
2023/02/13 11:17:53;;;;;;;19.05;14.70;;;11.10;99.90;;;;;;5049677;28;20029;-44
2023/02/13 11:20:36;;;;;;;20.58;15.40;;;11.10;99.90;;;;;;5061953;28;20035;-42
2023/02/13 11:23:30;;;;;;;20.15;15.70;;;11.00;99.90;;;;;;5051100;28;20174;-44
2023/02/13 11:25:55;;;;;;;20.13;15.30;;;10.90;99.90;;;;;;5060256;28;20491;-44
2023/02/13 11:28:22;;;;;;;22.15;16.55;;;10.90;99.90;;;;;;5061064;28;20028;-44
2023/02/13 11:30:48;;;;;;;23.77;18.02;;;10.80;99.90;;;;;;5059734;28;20035;-44
2023/02/13 11:33:16;;;;;;;24.52;18.50;;;10.70;99.90;;;;;;5060509;28;20017;-44
2023/02/13 11:35:43;;;;;;;20.45;16.23;;;10.70;99.90;;;;;;5060589;28;20035;-43
2023/02/13 11:38:14;;;;;;;19.77;15.48;;;10.70;99.90;;;;;;5058853;28;20071;-43
2023/02/13 11:40:47;;;;;;;20.75;15.18;;;10.70;99.90;;;;;;5060158;28;20119;-44
2023/02/13 11:43:33;;;;;;;21.40;15.77;;;10.70;99.90;;;;;;5057166;28;20024;-44
2023/02/13 11:46:02;;;;;;;21.20;14.43;;;10.70;99.90;;;;;;5059788;28;20471;-44
2023/02/13 11:48:27;;;;;;;18.67;13.68;;;10.70;99.90;;;;;;5060582;28;20377;-44
2023/02/13 11:50:55;;;;;;;21.70;15.32;;;10.70;99.90;;;;;;5060497;28;20459;-44
2023/02/13 11:53:38;;;;;;;18.50;13.25;;;10.80;99.90;;;;;;5060162;28;20125;-43
2023/02/13 11:56:13;;;;;;;16.83;13.23;;;10.80;99.90;;;;;;5060325;28;20559;-44
2023/02/13 11:58:41;;;;;;;19.98;15.52;;;10.80;99.90;;;;;;5058493;28;20027;-43
2023/02/13 12:01:27;;;;;;;20.75;15.90;;;10.80;99.90;;;;;;5060606;28;20063;-44
2023/02/13 12:04:12;;;;;;;19.75;15.85;;;10.80;99.90;;;;;;5059978;28;20388;-44
2023/02/13 12:06:41;;;;;;;20.10;14.98;;;10.80;99.90;;;;;;5059223;28;20700;-44
2023/02/13 12:09:14;;;;;;;18.10;14.23;;;10.80;99.90;;;;;;5056028;28;20028;-43
2023/02/13 12:11:45;;;;;;;18.63;13.63;;;10.80;99.90;;;;;;5059603;28;20132;-43
2023/02/13 12:14:18;;;;;;;18.70;13.35;;;10.80;99.90;;;;;;5059039;28;20024;-43
2023/02/13 12:17:04;;;;;;;19.02;13.80;;;10.80;99.90;;;;;;5059827;28;20029;-43
2023/02/13 12:19:39;;;;;;;18.55;14.20;;;10.80;99.90;;;;;;5057348;28;20028;-43
2023/02/13 12:22:20;;;;;;;15.82;13.52;;;10.80;99.90;;;;;;5059361;28;20024;-43
2023/02/13 12:25:26;;;;;;;17.42;13.40;;;10.80;99.90;;;;;;5057908;28;20029;-42
2023/02/13 12:28:15;;;;;;;16.92;13.00;;;10.80;99.90;;;;;;4985205;28;20042;-43
2023/02/13 12:31:09;;;;;;;19.08;14.35;;;10.90;99.90;;;;;;5059561;28;20059;-43
2023/02/13 12:34:09;;;;;;;19.52;15.15;;;11.00;99.90;;;;;;5059495;28;20028;-43
2023/02/13 12:36:46;;;;;;;18.42;13.85;;;11.00;99.90;;;;;;5059574;28;20032;-42
2023/02/13 12:39:27;;;;;;;18.52;13.90;;;11.00;99.90;;;;;;5059280;28;20066;-44
2023/02/13 12:42:12;;;;;;;17.75;14.70;;;11.00;99.90;;;;;;5058447;28;20107;-43
2023/02/13 12:44:59;;;;;;;20.27;15.85;;;11.10;99.90;;;;;;5059256;28;20031;-44
2023/02/13 12:47:58;;;;;;;19.30;14.48;;;11.10;99.90;;;;;;5039658;28;20808;-43
2023/02/13 12:50:59;;;;;;;17.52;13.85;;;11.10;99.90;;;;;;5058883;28;20479;-43
2023/02/13 12:54:04;;;;;;;17.88;13.05;;;11.20;99.90;;;;;;5027484;28;20038;-43
2023/02/13 12:56:54;;;;;;;15.48;11.80;;;11.30;99.90;;;;;;5050470;28;20803;-43
2023/02/13 12:59:48;;;;;;;15.02;11.18;;;11.30;99.90;;;;;;5058709;28;20024;-43
2023/02/13 13:02:40;;;;;;;14.55;11.13;;;11.30;99.90;;;;;;5058600;28;20059;-44
2023/02/13 13:05:29;;;;;;;14.40;11.23;;;11.30;99.90;;;;;;5058590;28;20033;-43
2023/02/13 13:08:32;;;;;;;14.23;11.32;;;11.40;99.90;;;;;;5038668;28;20468;-43
2023/02/13 13:11:06;;;;;;;13.65;11.32;;;11.40;99.90;;;;;;5057804;28;20104;-44
2023/02/13 13:13:57;;;;;;;14.65;11.55;;;11.40;99.90;;;;;;5058572;28;20035;-43
2023/02/13 13:16:33;;;;;;;14.40;12.10;;;11.40;99.90;;;;;;5058314;28;20794;-43
2023/02/13 13:19:34;;;;;;;14.70;11.82;;;11.50;99.90;;;;;;5057635;28;20094;-43
2023/02/13 13:22:31;;;;;;;13.40;10.90;;;11.50;99.90;;;;;;5047471;28;20060;-43
2023/02/13 13:25:30;;;;;;;16.50;12.35;;;11.50;99.90;;;;;;5057716;28;20031;-44
2023/02/13 13:28:01;;;;;;;14.13;11.45;;;11.60;99.90;;;;;;5057752;28;20036;-42
2023/02/13 13:30:33;;;;;;;15.52;11.60;;;11.50;99.90;;;;;;5057888;28;20116;-42
2023/02/13 13:33:03;;;;;;;14.15;11.20;;;11.60;99.90;;;;;;5058540;28;20199;-42
2023/02/13 13:35:30;;;;;;;12.82;10.40;;;11.60;99.90;;;;;;5057988;28;20039;-43
2023/02/13 13:38:12;;;;;;;13.48;11.07;;;11.70;99.90;;;;;;5057148;28;20380;-43
2023/02/13 13:40:50;;;;;;;13.93;10.50;;;11.70;99.90;;;;;;5058114;28;20384;-43
2023/02/13 13:43:56;;;;;;;15.13;11.65;;;11.70;99.90;;;;;;5057882;28;20094;-43